Weather at D J Airport

Public forecast

Using degrees Fahrenheit for public forecast. Weather courtesy of forecast.io.

Closest aviation weather report (METAR) to D J Airport

Closest report is Mount Pleasant Municipal Airport, 3.0 nm (5.6 km) S. Retrieved 2020/09/25 10:15 UTC (0 seconds ago):

KMOP 251015Z AUTO 00000KT 1/4SM FG OVC002 12/12 A3000 RMK AO2 T01150115

Closest aviation forecast (TAF) to D J Airport

Closest forecast is MBS International Airport, 29.8 nm (55.1 km) ESE. Retrieved 2020/09/25 06:22 UTC (4 hours ago):

TAF KMBS 250520Z 2506/2606 21005KT P6SM BKN060 TEMPO 2506/2509 1/2SM FG VV003 FM250900 VRB03KT 5SM HZ SCT200 FM251300 21005KT P6SM SCT200 FM251900 20008KT P6SM SKC